Time;durP1;ratioP1;P1;durP2;ratioP2;P2;SDS_P1;SDS_P2;PMS_P1;PMS_P2;Temp;Humidity;BMP_temperature;BMP_pressure;BME280_temperature;BME280_humidity;BME280_pressure;Samples;Min_cycle;Max_cycle;Signal;HPM_P1;HPM_P2
2022/02/01 00:00:43;;;;;;;;;41.50;36.50;;;;;2.76;68.61;102276.13;5101554;27;45759;-80
2022/02/01 00:03:11;;;;;;;;;38.25;35.75;;;;;2.74;68.02;102253.53;5100063;27;45509;-80
2022/02/01 00:05:48;;;;;;;;;31.75;28.00;;;;;2.83;68.44;102263.53;5101793;27;45402;-79
2022/02/01 00:08:31;;;;;;;;;21.50;19.00;;;;;2.87;69.14;102261.56;5101221;27;45332;-79
2022/02/01 00:18:49;;;;;;;;;24.25;24.25;;;;;2.79;68.89;102241.00;5089275;27;45470;-80
2022/02/01 00:37:25;;;;;;;;;21.25;20.75;;;;;2.57;67.83;102299.91;5080410;28;45305;-80
2022/02/01 00:39:56;;;;;;;;;21.00;19.50;;;;;2.38;68.79;102272.06;5080497;28;45456;-80
2022/02/01 00:42:22;;;;;;;;;21.00;19.50;;;;;2.45;68.16;102285.69;5080555;28;46241;-80
2022/02/01 00:44:47;;;;;;;;;26.50;20.50;;;;;2.47;68.65;102296.97;5080472;27;45647;-79
2022/02/01 00:47:13;;;;;;;;;22.25;21.25;;;;;2.37;68.07;102282.63;5079379;28;45288;-80
2022/02/01 00:49:39;;;;;;;;;18.00;15.50;;;;;2.33;67.98;102294.22;5079302;28;45918;-79
2022/02/01 00:52:05;;;;;;;;;18.50;18.50;;;;;2.24;68.94;102292.91;5080304;27;45902;-80
2022/02/01 00:54:30;;;;;;;;;18.75;18.00;;;;;2.25;68.22;102297.25;5080356;27;45618;-80
2022/02/01 00:56:56;;;;;;;;;17.00;16.50;;;;;2.19;68.53;102300.19;5079885;27;45299;-80
2022/02/01 00:59:21;;;;;;;;;17.50;17.25;;;;;2.20;69.15;102312.38;5079052;28;47077;-79
2022/02/01 01:01:47;;;;;;;;;17.25;17.25;;;;;2.01;69.70;102292.38;5078834;28;48936;-80
2022/02/01 01:04:13;;;;;;;;;12.00;11.50;;;;;2.08;69.86;102319.13;5080289;28;45321;-79
2022/02/01 01:06:38;;;;;;;;;16.00;14.25;;;;;2.13;70.19;102314.50;5078805;28;45343;-79
2022/02/01 01:09:04;;;;;;;;;16.00;14.25;;;;;1.99;69.52;102289.81;5078694;28;46439;-79
2022/02/01 01:11:30;;;;;;;;;12.75;12.75;;;;;2.01;69.92;102302.84;5078670;28;47507;-79
2022/02/01 01:54:06;;;;;;;;;13.50;12.00;;;;;2.27;71.01;102287.50;5099846;27;45908;-80
2022/02/01 01:56:33;;;;;;;;;14.00;13.50;;;;;2.35;71.06;102298.47;5099937;27;45239;-79
2022/02/01 01:59:01;;;;;;;;;25.25;21.50;;;;;2.35;71.10;102293.22;5098685;27;45307;-80
2022/02/01 02:01:27;;;;;;;;;17.25;15.75;;;;;2.34;70.72;102278.38;5099907;27;45382;-80
2022/02/01 02:03:52;;;;;;;;;14.00;13.50;;;;;2.45;71.22;102288.31;5099833;27;45260;-80
2022/02/01 02:06:19;;;;;;;;;18.75;17.50;;;;;2.46;71.30;102289.16;5099696;27;45229;-80
2022/02/01 02:08:48;;;;;;;;;17.00;17.00;;;;;2.42;70.93;102288.47;5100109;27;45223;-80
2022/02/01 02:11:22;;;;;;;;;14.50;14.50;;;;;2.35;70.47;102274.84;5101589;27;46318;-79
2022/02/01 02:16:41;;;;;;;;;13.00;13.00;;;;;2.39;71.46;102279.00;5103291;27;45237;-80
2022/02/01 02:19:08;;;;;;;;;14.50;14.50;;;;;2.46;71.49;102287.41;5086450;27;45550;-80
2022/02/01 02:21:34;;;;;;;;;17.25;13.00;;;;;2.51;71.36;102302.88;5081171;28;46223;-80
2022/02/01 02:24:00;;;;;;;;;14.50;14.50;;;;;2.44;71.25;102277.88;5081177;28;47563;-79
2022/02/01 02:26:25;;;;;;;;;19.25;17.75;;;;;2.45;70.96;102279.59;5082594;28;45272;-80
2022/02/01 02:28:51;;;;;;;;;13.75;13.50;;;;;2.48;71.71;102287.28;5082689;27;45180;-80
2022/02/01 02:31:21;;;;;;;;;17.50;16.75;;;;;2.54;71.70;102313.22;5082741;27;45197;-80
2022/02/01 02:33:46;;;;;;;;;32.25;28.25;;;;;2.45;71.98;102297.97;5082596;27;45350;-80
2022/02/01 02:36:16;;;;;;;;;27.25;23.75;;;;;2.55;71.84;102304.44;5080829;28;45393;-80
2022/02/01 02:38:46;;;;;;;;;26.75;24.50;;;;;2.49;71.37;102275.88;5081365;28;45274;-80
2022/02/01 02:46:30;;;;;;;;;32.25;30.75;;;;;2.67;70.83;102268.78;5082316;28;45306;-80
2022/02/01 02:48:56;;;;;;;;;22.25;20.25;;;;;2.65;71.41;102253.13;5082501;27;45570;-80
2022/02/01 02:51:21;;;;;;;;;19.00;17.00;;;;;2.74;72.03;102254.38;5082151;27;45466;-80
2022/02/01 02:53:47;;;;;;;;;16.50;15.50;;;;;2.85;72.18;102248.53;5082357;27;45389;-80
2022/02/01 02:56:13;;;;;;;;;12.25;12.25;;;;;2.93;72.04;102248.06;5082193;27;45292;-80
2022/02/01 02:58:39;;;;;;;;;10.75;10.25;;;;;2.94;72.75;102225.28;5081087;27;45351;-80
2022/02/01 03:01:05;;;;;;;;;13.25;11.50;;;;;2.84;72.59;102193.47;5080848;28;46093;-80
2022/02/01 03:03:30;;;;;;;;;13.75;12.75;;;;;3.10;72.66;102231.38;5082104;27;46535;-80
2022/02/01 03:05:55;;;;;;;;;15.50;15.50;;;;;2.99;71.67;102194.38;5082357;27;45410;-80
2022/02/01 03:08:25;;;;;;;;;11.67;11.67;;;;;3.13;71.73;102204.91;5082050;27;45342;-80
2022/02/01 03:10:50;;;;;;;;;14.25;13.25;;;;;3.23;72.04;102212.28;5081791;27;45472;-80
2022/02/01 03:13:22;;;;;;;;;13.25;12.75;;;;;3.26;72.43;102212.94;5081881;27;46555;-80
2022/02/01 03:15:58;;;;;;;;;14.50;14.50;;;;;3.42;71.89;102246.22;5082090;27;45151;-80
2022/02/01 03:21:07;;;;;;;;;18.75;18.75;;;;;3.34;71.56;102219.50;5101706;27;45203;-80
2022/02/01 03:23:33;;;;;;;;;24.25;21.75;;;;;3.49;71.53;102237.03;5102163;27;45242;-80
2022/02/01 03:25:58;;;;;;;;;22.00;19.75;;;;;3.40;71.78;102208.63;5100493;27;45276;-80
2022/02/01 03:28:23;;;;;;;;;19.50;19.25;;;;;3.52;70.50;102210.56;5102278;27;45414;-80
2022/02/01 03:30:49;;;;;;;;;18.75;17.50;;;;;3.65;71.01;102226.44;5100825;27;45954;-80
2022/02/01 03:33:14;;;;;;;;;26.50;22.75;;;;;3.67;70.58;102221.09;5100810;27;48010;-80
2022/02/01 03:35:39;;;;;;;;;14.50;13.25;;;;;3.66;71.02;102222.84;5102054;27;45312;-80
2022/02/01 03:38:05;;;;;;;;;19.00;15.25;;;;;3.76;71.51;102240.72;5100554;27;45591;-80
2022/02/01 03:40:30;;;;;;;;;12.75;11.75;;;;;3.77;71.89;102238.00;5100615;27;45988;-80
2022/02/01 03:42:55;;;;;;;;;13.67;12.67;;;;;3.76;71.24;102231.06;5102097;27;45929;-81
2022/02/01 03:45:21;;;;;;;;;13.00;13.00;;;;;3.92;71.47;102246.75;5102198;27;45375;-80
2022/02/01 03:47:46;;;;;;;;;13.00;11.50;;;;;3.97;71.29;102248.25;5100763;27;45279;-80
2022/02/01 03:50:12;;;;;;;;;11.00;11.00;;;;;4.00;71.35;102224.38;5101877;27;45405;-80
2022/02/01 03:52:37;;;;;;;;;11.25;9.50;;;;;4.12;71.58;102228.91;5101648;27;46015;-80
2022/02/01 03:55:04;;;;;;;;;13.67;11.67;;;;;4.04;71.52;102200.41;5101674;27;45348;-80
2022/02/01 03:57:29;;;;;;;;;10.50;9.25;;;;;4.06;71.54;102187.16;5100564;27;45306;-80
2022/02/01 03:59:54;;;;;;;;;8.75;8.75;;;;;4.04;71.62;102179.38;5100375;27;46194;-80
2022/02/01 04:02:20;;;;;;;;;9.75;8.75;;;;;4.21;71.17;102190.63;5101708;27;45687;-80
2022/02/01 04:04:51;;;;;;;;;10.67;8.67;;;;;4.26;71.01;102190.34;5101736;27;45299;-80
2022/02/01 04:07:16;;;;;;;;;9.67;9.67;;;;;4.27;71.04;102184.13;5100114;27;45363;-80
2022/02/01 04:09:42;;;;;;;;;10.00;9.67;;;;;4.27;70.90;102178.88;5099939;27;45484;-80
2022/02/01 04:12:08;;;;;;;;;9.33;8.67;;;;;4.37;71.25;102198.41;5101548;27;45369;-80
2022/02/01 04:14:34;;;;;;;;;8.00;8.00;;;;;4.33;71.02;102199.53;5100349;27;45799;-80
2022/02/01 04:17:03;;;;;;;;;10.33;10.33;;;;;4.44;71.52;102211.19;5101637;27;45321;-80
2022/02/01 04:19:30;;;;;;;;;9.00;9.00;;;;;4.46;71.47;102214.56;5081218;27;45324;-80
2022/02/01 04:22:01;;;;;;;;;10.00;8.33;;;;;4.48;71.50;102212.66;5080852;27;46598;-80
2022/02/01 04:24:37;;;;;;;;;16.67;11.67;;;;;4.39;71.40;102182.50;5079226;28;45278;-80
2022/02/01 04:27:04;;;;;;;;;8.33;8.33;;;;;4.47;71.05;102177.63;5079213;27;45204;-81
2022/02/01 04:29:30;;;;;;;;;10.67;9.00;;;;;4.59;70.84;102194.41;5079424;28;47099;-80
2022/02/01 04:31:56;;;;;;;;;8.00;8.00;;;;;4.54;71.17;102170.16;5079924;28;46398;-80
2022/02/01 04:34:22;;;;;;;;;10.00;7.00;;;;;4.51;71.41;102162.44;5080728;28;45326;-80
2022/02/01 04:36:47;;;;;;;;;9.33;7.67;;;;;4.59;71.17;102178.63;5079296;28;45382;-80
2022/02/01 04:39:13;;;;;;;;;11.00;7.67;;;;;4.70;71.16;102196.34;5079063;28;46424;-80
2022/02/01 04:41:38;;;;;;;;;8.33;8.33;;;;;4.60;71.38;102167.13;5080669;28;45406;-80
2022/02/01 04:44:04;;;;;;;;;10.50;7.50;;;;;4.66;70.84;102186.94;5080707;27;45370;-80
2022/02/01 04:46:30;;;;;;;;;9.00;8.33;;;;;4.74;70.86;102192.56;5079476;28;45490;-80
2022/02/01 04:49:02;;;;;;;;;10.67;8.67;;;;;4.76;71.47;102185.41;5080597;27;45261;-80
2022/02/01 04:51:29;;;;;;;;;10.67;9.00;;;;;4.78;71.30;102183.53;5080300;27;45471;-80
2022/02/01 04:53:55;;;;;;;;;8.00;8.00;;;;;4.80;71.60;102183.41;5080470;27;45361;-80
2022/02/01 04:56:20;;;;;;;;;10.00;8.33;;;;;4.80;71.33;102191.31;5079099;28;45498;-80
2022/02/01 04:58:46;;;;;;;;;6.67;6.67;;;;;4.85;71.97;102199.75;5078804;28;45866;-80
2022/02/01 05:01:13;;;;;;;;;9.67;9.67;;;;;4.82;71.85;102184.16;5079023;28;47162;-80
2022/02/01 05:03:42;;;;;;;;;8.33;8.33;;;;;4.86;71.96;102180.38;5080453;27;45233;-80
2022/02/01 05:06:08;;;;;;;;;7.67;5.00;;;;;4.88;72.57;102167.94;5080244;27;45406;-80
2022/02/01 05:08:34;;;;;;;;;6.00;6.00;;;;;4.77;72.22;102133.56;5078804;28;46441;-80
2022/02/01 05:11:00;;;;;;;;;8.00;6.33;;;;;4.83;72.60;102134.94;5079756;27;45525;-80
2022/02/01 05:16:08;;;;;;;;;7.67;6.67;;;;;4.87;72.85;102141.69;5080242;27;45403;-82
2022/02/01 05:18:45;;;;;;;;;9.33;8.33;;;;;4.95;73.41;102147.31;5091859;27;46074;-79
2022/02/01 05:21:21;;;;;;;;;4.67;4.67;;;;;5.07;73.42;102166.72;5098817;27;48568;-80
2022/02/01 05:23:47;;;;;;;;;4.33;3.00;;;;;5.03;73.81;102157.34;5100609;27;45227;-80
2022/02/01 05:26:13;;;;;;;;;6.67;6.67;;;;;5.12;73.77;102164.63;5100490;27;45324;-78
2022/02/01 05:28:38;;;;;;;;;7.67;6.67;;;;;5.08;74.52;102168.41;5100093;27;45442;-79
2022/02/01 05:31:04;;;;;;;;;8.00;5.67;;;;;5.17;74.16;102186.25;5100281;27;45359;-79
2022/02/01 05:33:30;;;;;;;;;9.00;8.00;;;;;5.22;74.12;102183.31;5100495;27;45325;-78
2022/02/01 05:35:56;;;;;;;;;10.67;9.00;;;;;5.22;74.44;102180.69;5099042;27;45271;-79
2022/02/01 05:38:22;;;;;;;;;6.00;6.00;;;;;5.18;74.09;102174.75;5099929;27;45642;-79
2022/02/01 05:40:47;;;;;;;;;5.33;5.00;;;;;5.07;74.68;102164.09;5100216;27;46134;-78
2022/02/01 05:43:18;;;;;;;;;9.33;5.00;;;;;5.25;75.42;102198.06;5099216;27;45278;-79
2022/02/01 05:45:44;;;;;;;;;6.67;6.67;;;;;5.27;75.64;102198.81;5102641;27;45315;-78
2022/02/01 05:48:10;;;;;;;;;4.00;4.00;;;;;5.28;76.92;102195.22;5102305;27;45958;-79
2022/02/01 05:50:36;;;;;;;;;9.00;7.67;;;;;5.28;75.99;102187.31;5102575;27;48425;-78
2022/02/01 05:53:01;;;;;;;;;9.33;8.00;;;;;5.21;76.01;102157.88;5103561;27;45354;-79
2022/02/01 05:55:27;;;;;;;;;6.00;5.67;;;;;5.29;76.77;102152.94;5102396;27;45277;-79
2022/02/01 05:57:53;;;;;;;;;7.67;6.67;;;;;5.28;76.95;102145.13;5103676;27;45275;-78
2022/02/01 06:00:20;;;;;;;;;9.33;9.00;;;;;5.23;77.26;102120.88;5102087;27;47428;-77
2022/02/01 06:02:47;;;;;;;;;5.67;4.00;;;;;5.27;77.68;102130.28;5102300;27;45253;-78
2022/02/01 06:05:15;;;;;;;;;8.00;4.67;;;;;5.07;78.00;102102.63;5103671;27;45232;-78
2022/02/01 06:07:40;;;;;;;;;8.00;6.67;;;;;5.17;78.30;102116.88;5103238;27;45279;-79
2022/02/01 06:10:06;;;;;;;;;8.67;6.00;;;;;5.29;78.37;102131.84;5073098;27;45415;-78
2022/02/01 06:12:46;;;;;;;;;9.67;8.33;;;;;5.29;78.38;102131.84;5070110;28;45418;-77
2022/02/01 06:15:15;;;;;;;;;9.00;6.67;;;;;5.27;78.55;102131.09;5062857;28;45453;-78
2022/02/01 06:17:40;;;;;;;;;8.00;8.00;;;;;5.23;79.00;102115.59;5064309;27;45218;-77
2022/02/01 06:20:09;;;;;;;;;8.00;8.00;;;;;5.11;78.57;102115.50;5065099;28;47609;-79
2022/02/01 06:22:34;;;;;;;;;6.67;6.33;;;;;5.19;78.55;102120.25;5062381;28;45307;-79
2022/02/01 06:25:01;;;;;;;;;7.67;5.67;;;;;5.22;79.19;102129.72;5060967;28;45318;-80
2022/02/01 06:27:27;;;;;;;;;7.00;5.67;;;;;5.15;79.55;102124.88;5062326;28;45271;-80
2022/02/01 06:29:52;;;;;;;;;5.00;4.00;;;;;5.21;79.65;102135.97;5062248;28;45269;-80
2022/02/01 06:32:18;;;;;;;;;8.00;6.00;;;;;4.91;80.15;102078.16;5062460;28;45163;-80
2022/02/01 06:34:44;;;;;;;;;9.67;9.00;;;;;5.14;80.08;102111.78;5062624;28;45234;-79
2022/02/01 06:37:09;;;;;;;;;6.33;5.67;;;;;5.24;79.91;102104.13;5060795;28;46223;-80
2022/02/01 06:39:37;;;;;;;;;5.33;5.33;;;;;5.23;80.07;102113.81;5062194;28;46215;-80
2022/02/01 06:42:03;;;;;;;;;9.00;9.00;;;;;5.12;79.94;102090.00;5062398;28;45314;-80
2022/02/01 06:44:28;;;;;;;;;9.67;9.33;;;;;5.29;80.41;102102.84;5062267;27;45221;-80
2022/02/01 06:46:54;;;;;;;;;10.00;10.00;;;;;5.25;80.31;102098.75;5060687;28;46148;-80
2022/02/01 06:49:19;;;;;;;;;6.33;4.00;;;;;5.40;79.97;102119.72;5060837;28;47320;-80
2022/02/01 06:51:45;;;;;;;;;8.33;8.33;;;;;5.30;80.06;102104.53;5060564;28;45365;-79
2022/02/01 06:54:11;;;;;;;;;8.33;6.00;;;;;5.32;80.54;102122.06;5062312;28;45351;-81
2022/02/01 06:56:36;;;;;;;;;7.00;6.33;;;;;5.41;80.54;102137.22;5061284;28;45378;-80
2022/02/01 06:59:04;;;;;;;;;8.67;7.67;;;;;5.43;80.48;102146.75;5060609;28;47209;-79
2022/02/01 07:01:30;;;;;;;;;10.67;9.33;;;;;5.45;80.57;102149.28;5060540;28;45283;-78
2022/02/01 07:03:56;;;;;;;;;9.33;5.67;;;;;5.48;80.22;102151.66;5062140;28;45278;-79
2022/02/01 07:06:22;;;;;;;;;12.00;10.33;;;;;5.43;80.75;102137.97;5061565;28;45371;-79
2022/02/01 07:08:49;;;;;;;;;8.00;6.67;;;;;5.41;80.74;102130.16;5060445;28;46839;-78
2022/02/01 07:11:16;;;;;;;;;9.00;5.67;;;;;5.46;80.58;102135.13;5061505;28;45256;-78
2022/02/01 07:13:42;;;;;;;;;11.33;10.00;;;;;5.38;81.41;102116.34;5061813;28;45258;-78
2022/02/01 07:16:08;;;;;;;;;7.00;6.67;;;;;5.29;81.23;102094.09;5061747;28;45171;-78
2022/02/01 07:18:34;;;;;;;;;6.67;6.00;;;;;5.43;81.49;102117.72;5084126;27;47285;-78
2022/02/01 07:20:59;;;;;;;;;11.00;11.00;;;;;5.48;82.05;102133.22;5100698;27;45246;-78
2022/02/01 07:23:26;;;;;;;;;7.50;7.50;;;;;5.39;81.39;102116.22;5095993;27;45593;-77
2022/02/01 07:25:54;;;;;;;;;10.00;9.00;;;;;5.49;81.75;102132.28;5097380;27;46066;-77
2022/02/01 07:28:22;;;;;;;;;9.00;8.00;;;;;5.40;81.68;102115.31;5081477;27;45401;-79
2022/02/01 07:30:47;;;;;;;;;19.33;10.33;;;;;5.50;81.47;102122.56;5081703;28;45288;-82
2022/02/01 07:33:13;;;;;;;;;10.33;8.33;;;;;5.52;82.59;102132.06;5081879;27;45253;-79
2022/02/01 07:35:39;;;;;;;;;14.67;12.00;;;;;5.49;82.36;102115.59;5081788;28;45200;-80
2022/02/01 07:38:06;;;;;;;;;9.00;8.33;;;;;5.54;81.90;102131.97;5081372;28;45225;-79
2022/02/01 07:40:31;;;;;;;;;14.33;10.67;;;;;5.46;82.98;102114.03;5080278;28;45466;-79
2022/02/01 07:42:57;;;;;;;;;13.00;12.00;;;;;5.54;82.21;102116.97;5080271;28;45363;-79
2022/02/01 07:45:27;;;;;;;;;10.33;10.00;;;;;5.47;82.10;102096.41;5081558;28;45497;-80
2022/02/01 07:47:54;;;;;;;;;11.67;11.67;;;;;5.63;82.31;102119.94;5097195;27;46980;-78
2022/02/01 07:50:21;;;;;;;;;9.33;7.33;;;;;5.62;81.76;102103.25;5078946;28;45266;-80
2022/02/01 07:52:46;;;;;;;;;9.33;6.00;;;;;5.67;82.99;102106.41;5061351;27;45281;-79
2022/02/01 07:55:12;;;;;;;;;9.67;9.67;;;;;5.68;83.16;102099.31;5060974;28;45317;-80
2022/02/01 07:57:38;;;;;;;;;6.00;5.67;;;;;5.62;82.83;102084.78;5061015;28;46024;-80
2022/02/01 08:00:05;;;;;;;;;21.00;19.33;;;;;5.74;82.28;102092.75;5059572;28;45479;-79
2022/02/01 08:02:31;;;;;;;;;12.67;12.00;;;;;5.65;82.85;102074.00;5071289;28;45476;-79
2022/02/01 08:04:57;;;;;;;;;9.67;9.33;;;;;5.61;82.73;102064.63;5086537;27;46165;-80
2022/02/01 08:07:24;;;;;;;;;12.33;11.00;;;;;5.73;82.94;102067.34;5067958;27;45497;-80
2022/02/01 08:09:55;;;;;;;;;10.33;10.33;;;;;5.69;82.79;102067.56;5074318;28;45540;-80
2022/02/01 08:18:21;;;;;;;;;10.67;9.67;;;;;5.74;83.53;102040.84;5073251;27;45322;-82
2022/02/01 08:20:33;;;;;;;;;6.33;6.33;;;;;5.76;83.86;102038.09;5068891;27;45432;-82
2022/02/01 08:23:02;;;;;;;;;6.33;6.33;;;;;5.60;83.20;102009.34;5084667;27;45519;-82
2022/02/01 08:25:32;;;;;;;;;9.00;9.00;;;;;5.66;83.53;102020.28;5070571;28;47209;-82
2022/02/01 08:28:01;;;;;;;;;13.00;13.00;;;;;5.78;84.04;102034.41;5070300;28;46067;-85
2022/02/01 08:30:27;;;;;;;;;11.00;10.33;;;;;5.69;84.70;102013.97;5066582;27;45306;-81
2022/02/01 08:32:53;;;;;;;;;14.00;12.67;;;;;5.81;84.50;102039.44;5068702;27;45524;-81
2022/02/01 08:35:19;;;;;;;;;8.33;6.33;;;;;5.83;83.69;102039.34;5068535;27;45524;-83
2022/02/01 08:37:44;;;;;;;;;11.00;10.33;;;;;5.88;83.31;102028.47;5074403;27;45419;-81
2022/02/01 08:40:12;;;;;;;;;9.67;9.67;;;;;5.80;83.11;102024.59;5080782;28;45239;-81
2022/02/01 08:42:39;;;;;;;;;10.33;10.33;;;;;5.88;84.12;102025.81;5080710;28;45302;-81
2022/02/01 08:45:05;;;;;;;;;7.67;7.33;;;;;5.96;83.38;102027.91;5080629;27;45309;-79
2022/02/01 08:47:30;;;;;;;;;11.00;10.00;;;;;5.97;83.77;102029.59;5080342;28;46216;-80
2022/02/01 08:49:56;;;;;;;;;14.00;12.33;;;;;5.48;84.67;101955.69;5078677;28;45336;-80
2022/02/01 08:52:29;;;;;;;;;11.67;10.67;;;;;5.95;83.96;102024.41;5079268;28;45228;-80
2022/02/01 08:54:55;;;;;;;;;13.00;11.33;;;;;5.92;84.42;102007.03;5078143;28;47076;-77
2022/02/01 08:59:48;;;;;;;;;14.33;12.00;;;;;6.00;85.17;102000.34;5080573;28;45284;-77
2022/02/01 09:02:16;;;;;;;;;12.67;12.67;;;;;6.03;84.13;101997.47;5079555;28;45282;-77
2022/02/01 09:04:42;;;;;;;;;14.33;13.33;;;;;6.06;85.36;101999.91;5067194;27;45524;-77
2022/02/01 09:07:07;;;;;;;;;12.67;11.33;;;;;6.09;85.02;101990.91;5071298;27;45306;-77
2022/02/01 09:09:34;;;;;;;;;11.67;11.33;;;;;6.17;84.66;101999.13;5078121;28;45315;-77
2022/02/01 09:11:59;;;;;;;;;13.33;12.33;;;;;6.19;84.61;101998.06;5067010;27;45373;-77
2022/02/01 09:14:25;;;;;;;;;11.67;10.67;;;;;6.23;84.69;101993.41;5065599;27;45465;-77
2022/02/01 09:16:51;;;;;;;;;10.67;10.67;;;;;6.15;85.27;101978.13;5065786;27;45914;-77
2022/02/01 09:19:17;;;;;;;;;12.67;12.33;;;;;6.25;85.33;101995.91;5095478;27;45280;-78
2022/02/01 09:21:44;;;;;;;;;11.00;11.00;;;;;6.17;85.94;101976.19;5100442;27;45317;-78
2022/02/01 09:24:10;;;;;;;;;12.00;12.00;;;;;6.30;84.81;101993.75;5076711;27;47396;-79
2022/02/01 09:26:35;;;;;;;;;13.67;12.33;;;;;6.32;85.71;101994.50;5095270;27;48406;-78
2022/02/01 09:29:02;;;;;;;;;17.33;14.00;;;;;6.24;85.46;101962.53;5080000;27;45360;-80
2022/02/01 09:31:27;;;;;;;;;10.33;10.33;;;;;6.35;85.06;101977.56;5079465;28;45390;-81
2022/02/01 09:33:53;;;;;;;;;17.00;14.67;;;;;6.34;85.98;101962.69;5078226;28;45374;-81
2022/02/01 09:36:18;;;;;;;;;16.33;15.33;;;;;6.34;85.80;101966.16;5079756;28;45238;-80
2022/02/01 09:38:44;;;;;;;;;12.00;10.33;;;;;6.44;85.47;101966.31;5079932;27;45319;-79
2022/02/01 09:41:09;;;;;;;;;12.00;10.67;;;;;6.33;85.00;101951.28;5079942;27;45307;-80
2022/02/01 09:43:35;;;;;;;;;14.67;14.67;;;;;6.36;85.74;101953.69;5078259;28;47015;-81
2022/02/01 09:46:01;;;;;;;;;14.67;13.00;;;;;6.44;85.75;101950.47;5077284;28;45412;-80
2022/02/01 09:48:27;;;;;;;;;11.67;11.00;;;;;6.59;85.67;101966.09;5075843;28;45354;-79
2022/02/01 09:50:53;;;;;;;;;12.33;11.67;;;;;6.56;87.53;101960.09;5077333;28;45309;-80
2022/02/01 09:53:20;;;;;;;;;12.67;11.67;;;;;6.56;86.36;101970.66;5077216;28;45558;-80
2022/02/01 09:55:47;;;;;;;;;15.33;13.33;;;;;6.63;86.50;101971.03;5077054;28;45572;-81
2022/02/01 09:58:13;;;;;;;;;10.67;10.33;;;;;6.62;86.23;101966.72;5096817;27;45460;-88
2022/02/01 10:00:46;;;;;;;;;13.00;13.00;;;;;6.75;86.34;101963.13;5061775;28;45368;-88
2022/02/01 10:03:19;;;;;;;;;12.33;11.67;;;;;6.65;86.31;101945.31;5095434;27;47303;-82
2022/02/01 10:06:02;;;;;;;;;13.67;13.00;;;;;6.68;86.94;101945.09;5078378;28;48029;-81
2022/02/01 10:08:28;;;;;;;;;12.00;12.00;;;;;6.85;86.14;101964.09;5079989;28;45306;-84
2022/02/01 10:10:53;;;;;;;;;14.67;13.00;;;;;6.77;86.07;101969.94;5079482;28;45352;-81
2022/02/01 10:13:19;;;;;;;;;15.67;13.00;;;;;6.74;86.86;101956.16;5080783;28;46149;-85
2022/02/01 10:16:29;;;;;;;;;18.33;13.67;;;;;6.89;86.42;101973.44;5085593;28;47425;-85
2022/02/01 10:19:12;;;;;;;;;15.00;15.00;;;;;6.74;86.88;101942.94;5092046;27;45882;-83
2022/02/01 10:21:58;;;;;;;;;13.00;13.00;;;;;6.93;86.99;101960.84;5081124;28;45362;-84
2022/02/01 10:24:31;;;;;;;;;14.33;13.67;;;;;6.97;86.31;101972.03;5083870;28;45545;-85
2022/02/01 10:27:09;;;;;;;;;18.33;14.00;;;;;6.99;86.27;101970.09;5078048;28;47454;-83
2022/02/01 10:29:35;;;;;;;;;18.33;17.00;;;;;6.95;85.69;101956.28;5078602;28;45250;-85
2022/02/01 10:32:31;;;;;;;;;14.67;14.67;;;;;6.94;85.79;101949.31;5082069;28;45410;-83
2022/02/01 10:35:09;;;;;;;;;13.67;12.33;;;;;6.85;86.18;101931.53;5083405;27;45226;-83
2022/02/01 10:37:35;;;;;;;;;19.67;17.67;;;;;6.92;86.11;101940.66;5082841;28;46215;-84
2022/02/01 10:40:06;;;;;;;;;17.00;15.67;;;;;7.00;86.66;101950.66;5084379;28;45234;-85
2022/02/01 10:42:31;;;;;;;;;15.33;13.67;;;;;6.84;86.20;101916.63;5083288;28;45255;-85
2022/02/01 10:44:58;;;;;;;;;15.33;15.33;;;;;7.03;85.98;101945.09;5083028;27;45149;-84
2022/02/01 10:47:37;;;;;;;;;17.00;17.00;;;;;6.99;86.33;101933.94;5083094;28;45697;-83
2022/02/01 10:50:04;;;;;;;;;16.67;16.00;;;;;6.93;86.35;101923.84;5083380;28;45318;-84
2022/02/01 10:52:32;;;;;;;;;15.67;14.00;;;;;6.93;86.41;101922.06;5081225;28;45341;-82
2022/02/01 10:54:59;;;;;;;;;17.00;16.67;;;;;6.99;86.84;101919.88;5082415;28;45223;-83
2022/02/01 10:57:25;;;;;;;;;17.00;17.00;;;;;7.04;86.78;101912.44;5082417;28;46452;-84
2022/02/01 10:59:50;;;;;;;;;21.67;18.67;;;;;6.99;86.42;101901.38;5082691;27;45233;-83
2022/02/01 11:02:16;;;;;;;;;19.33;17.33;;;;;7.08;86.52;101905.94;5082532;28;45149;-83
2022/02/01 11:04:41;;;;;;;;;22.67;21.67;;;;;7.10;86.73;101904.00;5082344;28;45341;-84
2022/02/01 11:07:07;;;;;;;;;16.67;16.33;;;;;7.15;86.97;101896.53;5078825;28;48602;-82
2022/02/01 11:09:34;;;;;;;;;19.33;19.33;;;;;7.18;86.96;101895.44;5080189;28;45390;-84
2022/02/01 11:12:06;;;;;;;;;19.00;18.00;;;;;7.22;86.83;101896.91;5081255;28;45468;-86
2022/02/01 11:14:56;;;;;;;;;18.67;16.67;;;;;7.25;86.60;101903.75;5082131;27;45365;-83
2022/02/01 11:17:22;;;;;;;;;15.00;15.00;;;;;7.18;87.00;101883.06;5080781;27;46553;-84
2022/02/01 11:19:58;;;;;;;;;23.00;20.67;;;;;7.32;87.28;101895.19;5069282;28;45238;-80
2022/02/01 11:22:36;;;;;;;;;18.33;17.00;;;;;7.29;87.19;101870.78;5061814;28;45350;-81
2022/02/01 11:30:52;;;;;;;;;17.33;16.33;;;;;7.46;86.82;101887.94;5061552;28;45321;-87
2022/02/01 11:33:18;;;;;;;;;17.33;16.67;;;;;7.22;87.18;101832.59;5060582;28;45351;-88
2022/02/01 11:35:44;;;;;;;;;17.67;15.67;;;;;7.51;87.27;101874.34;5061816;28;45481;-82
2022/02/01 11:38:20;;;;;;;;;7.00;7.00;;;;;7.47;87.23;101864.94;5062331;28;45922;-84
2022/02/01 11:40:49;;;;;;;;;19.00;18.33;;;;;7.58;86.69;101878.16;5060924;28;45738;-88
2022/02/01 11:43:17;;;;;;;;;18.33;17.00;;;;;7.59;87.31;101871.88;5065937;28;45342;-88
2022/02/01 11:45:55;;;;;;;;;17.67;16.67;;;;;7.36;86.73;101815.59;5063422;28;45517;-88
2022/02/01 11:48:23;;;;;;;;;21.33;21.33;;;;;7.66;86.94;101862.47;5063704;28;45366;-87
2022/02/01 11:50:53;;;;;;;;;15.33;14.33;;;;;7.71;87.06;101854.16;5059904;28;45329;-88
2022/02/01 11:53:35;;;;;;;;;15.67;15.67;;;;;7.77;87.37;101843.06;5068786;28;45331;-87
2022/02/01 11:56:03;;;;;;;;;15.33;15.33;;;;;7.87;86.83;101842.28;5092206;27;46465;-86
2022/02/01 11:58:36;;;;;;;;;14.00;13.33;;;;;7.93;87.39;101847.91;5081672;27;45640;-88
2022/02/01 12:01:05;;;;;;;;;18.33;15.67;;;;;7.80;86.99;101818.13;5080676;28;45452;-87
2022/02/01 12:03:36;;;;;;;;;17.67;17.67;;;;;7.90;86.58;101832.28;5080209;28;45268;-86
2022/02/01 12:06:07;;;;;;;;;17.00;16.33;;;;;7.89;87.02;101827.09;5081320;27;45549;-88
2022/02/01 12:08:35;;;;;;;;;15.33;15.33;;;;;7.98;86.62;101842.22;5080149;28;48087;-86
2022/02/01 12:11:03;;;;;;;;;21.33;21.33;;;;;8.03;87.31;101833.88;5081294;27;45209;-88
2022/02/01 12:13:31;;;;;;;;;18.00;17.00;;;;;8.06;86.99;101836.28;5083641;27;45477;-83
2022/02/01 12:15:59;;;;;;;;;17.00;14.67;;;;;8.04;86.95;101835.56;5080536;28;46401;-91
2022/02/01 12:18:34;;;;;;;;;17.67;15.67;;;;;7.99;87.15;101809.47;5092155;27;45246;-88
2022/02/01 12:21:25;;;;;;;;;15.00;15.00;;;;;7.90;87.17;101789.91;5101748;27;45239;-88
2022/02/01 12:23:52;;;;;;;;;15.67;14.67;;;;;8.06;87.65;101820.41;5101918;27;45301;-83
2022/02/01 12:26:29;;;;;;;;;17.33;17.00;;;;;8.11;86.90;101817.34;5100052;27;47615;-81
2022/02/01 12:28:58;;;;;;;;;17.33;16.00;;;;;8.15;87.54;101816.13;5094056;27;47073;-87
2022/02/01 12:31:26;;;;;;;;;13.33;12.00;;;;;8.18;88.08;101807.91;5079929;28;45368;-84
2022/02/01 12:33:55;;;;;;;;;11.00;11.00;;;;;8.16;87.87;101799.25;5082420;28;45184;-88
2022/02/01 12:36:27;;;;;;;;;15.00;15.00;;;;;8.19;87.59;101807.78;5085623;27;45287;-86
2022/02/01 12:39:03;;;;;;;;;15.67;15.33;;;;;8.26;87.76;101808.06;5082843;28;48372;-88
2022/02/01 12:41:33;;;;;;;;;14.67;14.67;;;;;8.31;87.37;101797.94;5082237;27;45234;-83
2022/02/01 12:46:52;;;;;;;;;12.00;12.00;;;;;8.26;86.88;101778.94;5081097;28;45227;-85
2022/02/01 12:49:19;;;;;;;;;15.00;12.33;;;;;8.33;87.83;101779.25;5082138;28;46167;-85
2022/02/01 12:51:49;;;;;;;;;12.00;10.00;;;;;8.42;88.05;101783.75;5081075;28;45334;-85
2022/02/01 12:54:22;;;;;;;;;12.67;10.67;;;;;8.48;88.29;101768.28;5081263;28;45358;-86
2022/02/01 12:56:49;;;;;;;;;12.67;11.67;;;;;8.46;87.84;101755.16;5079832;28;47061;-86
2022/02/01 12:59:14;;;;;;;;;9.33;9.00;;;;;8.53;88.18;101751.00;5082099;28;45315;-83